sensor_id;sensor_type;location;lat;lon;timestamp;pressure;altitude;pressure_sealevel;temperature;humidity
13058;BME280;6595;49.578;11.012;2022-07-29T00:00:24;982.433;;;27.14;89.3
13058;BME280;6595;49.578;11.012;2022-07-29T00:02:23;982.411;;;27.25;89.3
13058;BME280;6595;49.578;11.012;2022-07-29T00:04:23;982.411;;;27.55;89.4
13058;BME280;6595;49.578;11.012;2022-07-29T00:06:23;982.379;;;27.62;89.4
13058;BME280;6595;49.578;11.012;2022-07-29T00:08:23;982.368;;;27.24;89.3
13058;BME280;6595;49.578;11.012;2022-07-29T00:10:23;982.316;;;27.48;89.4
13058;BME280;6595;49.578;11.012;2022-07-29T00:12:24;982.281;;;27.50;89.4
13058;BME280;6595;49.578;11.012;2022-07-29T00:14:24;982.233;;;27.47;89.4
13058;BME280;6595;49.578;11.012;2022-07-29T00:16:24;982.196;;;27.56;89.4
13058;BME280;6595;49.578;11.012;2022-07-29T00:18:24;982.189;;;27.37;89.3
13058;BME280;6595;49.578;11.012;2022-07-29T00:20:24;982.134;;;27.57;89.4
13058;BME280;6595;49.578;11.012;2022-07-29T00:22:24;982.164;;;27.62;89.4
13058;BME280;6595;49.578;11.012;2022-07-29T00:24:24;982.148;;;27.51;89.4
13058;BME280;6595;49.578;11.012;2022-07-29T00:26:24;982.067;;;27.31;89.3
13058;BME280;6595;49.578;11.012;2022-07-29T00:28:24;982.025;;;27.56;89.4
13058;BME280;6595;49.578;11.012;2022-07-29T00:30:24;982.034;;;27.65;89.4
13058;BME280;6595;49.578;11.012;2022-07-29T00:32:24;982.028;;;27.33;89.4
13058;BME280;6595;49.578;11.012;2022-07-29T00:34:43;982.035;;;27.55;89.4
13058;BME280;6595;49.578;11.012;2022-07-29T00:36:24;982.031;;;27.61;89.4
13058;BME280;6595;49.578;11.012;2022-07-29T00:38:23;981.944;;;27.19;89.3
13058;BME280;6595;49.578;11.012;2022-07-29T00:40:23;981.937;;;27.61;89.4
13058;BME280;6595;49.578;11.012;2022-07-29T00:42:23;981.972;;;27.47;89.4
13058;BME280;6595;49.578;11.012;2022-07-29T00:44:24;982.035;;;27.53;89.4
13058;BME280;6595;49.578;11.012;2022-07-29T00:46:23;982.017;;;27.32;89.3
13058;BME280;6595;49.578;11.012;2022-07-29T00:48:24;982.008;;;27.59;89.4
13058;BME280;6595;49.578;11.012;2022-07-29T00:50:24;981.999;;;27.76;89.4
13058;BME280;6595;49.578;11.012;2022-07-29T00:52:23;982.060;;;27.37;89.3
13058;BME280;6595;49.578;11.012;2022-07-29T00:54:25;981.974;;;27.76;89.4
13058;BME280;6595;49.578;11.012;2022-07-29T00:56:23;981.969;;;27.43;89.4
13058;BME280;6595;49.578;11.012;2022-07-29T00:58:24;981.964;;;27.63;89.4
13058;BME280;6595;49.578;11.012;2022-07-29T01:00:26;981.992;;;27.76;89.4
13058;BME280;6595;49.578;11.012;2022-07-29T01:02:23;981.961;;;27.61;89.4
13058;BME280;6595;49.578;11.012;2022-07-29T01:04:24;981.878;;;27.91;89.4
13058;BME280;6595;49.578;11.012;2022-07-29T01:06:24;981.910;;;27.43;89.4
13058;BME280;6595;49.578;11.012;2022-07-29T01:08:23;981.849;;;27.69;89.4
13058;BME280;6595;49.578;11.012;2022-07-29T01:10:24;981.841;;;27.76;89.4
13058;BME280;6595;49.578;11.012;2022-07-29T01:12:25;981.881;;;27.67;89.4
13058;BME280;6595;49.578;11.012;2022-07-29T01:14:25;981.879;;;27.89;89.4
13058;BME280;6595;49.578;11.012;2022-07-29T01:16:30;981.888;;;27.67;89.4
13058;BME280;6595;49.578;11.012;2022-07-29T01:18:30;981.918;;;27.92;89.4
13058;BME280;6595;49.578;11.012;2022-07-29T01:20:30;981.965;;;27.65;89.4
13058;BME280;6595;49.578;11.012;2022-07-29T01:22:41;982.017;;;27.32;89.3
13058;BME280;6595;49.578;11.012;2022-07-29T01:24:39;982.058;;;27.49;89.4
13058;BME280;6595;49.578;11.012;2022-07-29T01:26:33;982.116;;;27.62;89.4
13058;BME280;6595;49.578;11.012;2022-07-29T01:28:39;982.183;;;27.73;89.4
13058;BME280;6595;49.578;11.012;2022-07-29T01:30:24;982.261;;;27.51;89.4
13058;BME280;6595;49.578;11.012;2022-07-29T01:32:27;982.269;;;27.41;89.4
13058;BME280;6595;49.578;11.012;2022-07-29T01:34:29;982.182;;;27.42;89.4
13058;BME280;6595;49.578;11.012;2022-07-29T01:36:32;982.158;;;27.66;89.4
13058;BME280;6595;49.578;11.012;2022-07-29T01:38:25;982.165;;;27.81;89.4
13058;BME280;6595;49.578;11.012;2022-07-29T01:40:29;982.128;;;27.86;89.4
13058;BME280;6595;49.578;11.012;2022-07-29T01:42:29;982.141;;;27.53;89.4
13058;BME280;6595;49.578;11.012;2022-07-29T01:44:31;982.074;;;27.36;89.3
13058;BME280;6595;49.578;11.012;2022-07-29T01:46:29;982.046;;;27.47;89.4
13058;BME280;6595;49.578;11.012;2022-07-29T01:48:30;982.039;;;27.76;89.4
13058;BME280;6595;49.578;11.012;2022-07-29T01:50:35;982.049;;;27.63;89.4
13058;BME280;6595;49.578;11.012;2022-07-29T01:52:27;982.121;;;27.58;89.4
13058;BME280;6595;49.578;11.012;2022-07-29T01:54:30;982.168;;;27.63;89.4
13058;BME280;6595;49.578;11.012;2022-07-29T01:56:29;982.143;;;27.64;89.4
13058;BME280;6595;49.578;11.012;2022-07-29T01:58:24;982.112;;;27.19;89.3
13058;BME280;6595;49.578;11.012;2022-07-29T02:00:25;982.047;;;27.38;89.3
13058;BME280;6595;49.578;11.012;2022-07-29T02:02:26;982.064;;;27.38;89.3
13058;BME280;6595;49.578;11.012;2022-07-29T02:04:24;982.035;;;27.26;89.3
13058;BME280;6595;49.578;11.012;2022-07-29T02:06:25;982.011;;;27.28;89.3
13058;BME280;6595;49.578;11.012;2022-07-29T02:08:25;981.994;;;27.31;89.3
13058;BME280;6595;49.578;11.012;2022-07-29T02:10:26;981.992;;;27.24;89.3
13058;BME280;6595;49.578;11.012;2022-07-29T02:12:25;982.014;;;27.12;89.3
13058;BME280;6595;49.578;11.012;2022-07-29T02:14:24;982.054;;;26.92;89.3
13058;BME280;6595;49.578;11.012;2022-07-29T02:16:26;982.029;;;27.01;89.3
13058;BME280;6595;49.578;11.012;2022-07-29T02:18:25;982.051;;;26.96;89.3
13058;BME280;6595;49.578;11.012;2022-07-29T02:20:25;982.070;;;26.78;89.3
13058;BME280;6595;49.578;11.012;2022-07-29T02:22:24;982.014;;;26.48;89.3
13058;BME280;6595;49.578;11.012;2022-07-29T02:24:25;982.028;;;26.34;89.2
13058;BME280;6595;49.578;11.012;2022-07-29T02:26:26;982.067;;;26.52;89.3
13058;BME280;6595;49.578;11.012;2022-07-29T02:28:26;982.034;;;26.61;89.3
13058;BME280;6595;49.578;11.012;2022-07-29T02:30:25;982.017;;;26.76;89.3
13058;BME280;6595;49.578;11.012;2022-07-29T02:32:24;982.010;;;26.69;89.3
13058;BME280;6595;49.578;11.012;2022-07-29T02:34:24;982.009;;;26.74;89.3
13058;BME280;6595;49.578;11.012;2022-07-29T02:36:24;982.044;;;26.72;89.3
13058;BME280;6595;49.578;11.012;2022-07-29T02:38:44;981.974;;;26.20;89.2
13058;BME280;6595;49.578;11.012;2022-07-29T02:40:24;981.959;;;26.42;89.3
13058;BME280;6595;49.578;11.012;2022-07-29T02:42:24;981.837;;;26.24;89.2
13058;BME280;6595;49.578;11.012;2022-07-29T02:44:25;981.936;;;26.50;89.3
13058;BME280;6595;49.578;11.012;2022-07-29T02:46:30;981.979;;;26.38;89.2
13058;BME280;6595;49.578;11.012;2022-07-29T02:48:34;981.967;;;26.35;89.2
13058;BME280;6595;49.578;11.012;2022-07-29T02:50:30;981.932;;;26.41;89.3
13058;BME280;6595;49.578;11.012;2022-07-29T02:52:27;981.961;;;26.01;89.2
13058;BME280;6595;49.578;11.012;2022-07-29T02:54:30;981.986;;;25.80;89.2
13058;BME280;6595;49.578;11.012;2022-07-29T02:56:27;981.941;;;25.83;89.2
13058;BME280;6595;49.578;11.012;2022-07-29T02:58:28;981.964;;;25.71;89.2
13058;BME280;6595;49.578;11.012;2022-07-29T03:00:26;981.982;;;25.89;89.2
13058;BME280;6595;49.578;11.012;2022-07-29T03:02:25;981.955;;;25.88;89.2
13058;BME280;6595;49.578;11.012;2022-07-29T03:04:26;981.972;;;25.94;89.2
13058;BME280;6595;49.578;11.012;2022-07-29T03:06:25;981.966;;;25.60;89.2
13058;BME280;6595;49.578;11.012;2022-07-29T03:08:24;981.950;;;25.78;89.2
13058;BME280;6595;49.578;11.012;2022-07-29T03:10:25;981.992;;;25.68;89.2
13058;BME280;6595;49.578;11.012;2022-07-29T03:12:24;982.004;;;25.53;89.2
13058;BME280;6595;49.578;11.012;2022-07-29T03:14:24;982.007;;;25.57;89.2
13058;BME280;6595;49.578;11.012;2022-07-29T03:16:24;981.992;;;25.46;89.1
13058;BME280;6595;49.578;11.012;2022-07-29T03:18:24;981.978;;;25.53;89.2
13058;BME280;6595;49.578;11.012;2022-07-29T03:20:24;981.971;;;25.56;89.2
13058;BME280;6595;49.578;11.012;2022-07-29T03:22:24;981.976;;;25.48;89.2
13058;BME280;6595;49.578;11.012;2022-07-29T03:24:29;981.974;;;25.45;89.1
13058;BME280;6595;49.578;11.012;2022-07-29T03:26:23;981.993;;;25.21;89.1
13058;BME280;6595;49.578;11.012;2022-07-29T03:28:23;981.945;;;25.44;89.1
13058;BME280;6595;49.578;11.012;2022-07-29T03:30:24;982.004;;;25.44;89.1
13058;BME280;6595;49.578;11.012;2022-07-29T03:32:24;981.955;;;25.23;89.1
13058;BME280;6595;49.578;11.012;2022-07-29T03:34:23;981.953;;;25.22;89.1
13058;BME280;6595;49.578;11.012;2022-07-29T03:36:24;981.901;;;25.23;89.1
13058;BME280;6595;49.578;11.012;2022-07-29T03:38:26;981.911;;;24.95;89.1
13058;BME280;6595;49.578;11.012;2022-07-29T03:40:27;981.956;;;25.37;89.1
13058;BME280;6595;49.578;11.012;2022-07-29T03:42:28;981.919;;;25.05;89.1
13058;BME280;6595;49.578;11.012;2022-07-29T03:44:26;981.894;;;25.09;89.1
13058;BME280;6595;49.578;11.012;2022-07-29T03:46:26;981.903;;;24.91;89.1
13058;BME280;6595;49.578;11.012;2022-07-29T03:48:25;981.917;;;24.84;89.1
13058;BME280;6595;49.578;11.012;2022-07-29T03:50:24;981.913;;;24.76;89.1
13058;BME280;6595;49.578;11.012;2022-07-29T03:52:24;981.917;;;24.82;89.1
13058;BME280;6595;49.578;11.012;2022-07-29T03:54:24;981.954;;;24.92;89.1
13058;BME280;6595;49.578;11.012;2022-07-29T03:56:24;981.948;;;24.90;89.1
13058;BME280;6595;49.578;11.012;2022-07-29T03:58:26;981.939;;;24.74;89.1
13058;BME280;6595;49.578;11.012;2022-07-29T04:00:24;981.964;;;24.51;89.1
13058;BME280;6595;49.578;11.012;2022-07-29T04:02:25;981.952;;;24.64;89.1
13058;BME280;6595;49.578;11.012;2022-07-29T04:04:24;981.982;;;24.67;89.1
13058;BME280;6595;49.578;11.012;2022-07-29T04:06:25;982.053;;;24.77;89.1
13058;BME280;6595;49.578;11.012;2022-07-29T04:08:24;982.044;;;24.87;89.1
13058;BME280;6595;49.578;11.012;2022-07-29T04:10:24;982.057;;;24.90;89.1
13058;BME280;6595;49.578;11.012;2022-07-29T04:12:24;982.039;;;24.90;89.1
13058;BME280;6595;49.578;11.012;2022-07-29T04:14:23;982.027;;;24.55;89.0
13058;BME280;6595;49.578;11.012;2022-07-29T04:16:24;982.039;;;24.46;89.0
13058;BME280;6595;49.578;11.012;2022-07-29T04:18:24;982.098;;;24.56;89.0
13058;BME280;6595;49.578;11.012;2022-07-29T04:20:23;982.088;;;24.65;89.1
13058;BME280;6595;49.578;11.012;2022-07-29T04:22:23;982.070;;;24.62;89.1
13058;BME280;6595;49.578;11.012;2022-07-29T04:24:25;982.100;;;24.73;89.1
13058;BME280;6595;49.578;11.012;2022-07-29T04:26:24;982.122;;;24.74;89.1
13058;BME280;6595;49.578;11.012;2022-07-29T04:28:24;982.155;;;24.57;89.1
13058;BME280;6595;49.578;11.012;2022-07-29T04:30:24;982.146;;;24.23;89.0
13058;BME280;6595;49.578;11.012;2022-07-29T04:32:24;982.158;;;24.41;89.0
13058;BME280;6595;49.578;11.012;2022-07-29T04:34:23;982.158;;;24.41;89.0
13058;BME280;6595;49.578;11.012;2022-07-29T04:36:23;982.148;;;24.74;89.1
13058;BME280;6595;49.578;11.012;2022-07-29T04:38:24;982.175;;;24.79;89.1
13058;BME280;6595;49.578;11.012;2022-07-29T04:40:24;982.164;;;24.66;89.1
13058;BME280;6595;49.578;11.012;2022-07-29T04:42:24;982.180;;;24.67;89.1
13058;BME280;6595;49.578;11.012;2022-07-29T04:44:24;982.166;;;24.50;89.0
13058;BME280;6595;49.578;11.012;2022-07-29T04:46:24;982.148;;;24.71;89.1
13058;BME280;6595;49.578;11.012;2022-07-29T04:48:24;982.174;;;24.50;89.1
13058;BME280;6595;49.578;11.012;2022-07-29T04:50:24;982.177;;;24.44;89.0
13058;BME280;6595;49.578;11.012;2022-07-29T04:52:23;982.182;;;24.40;89.0
13058;BME280;6595;49.578;11.012;2022-07-29T04:54:24;982.203;;;24.65;89.1
13058;BME280;6595;49.578;11.012;2022-07-29T04:56:24;982.189;;;24.99;89.1
13058;BME280;6595;49.578;11.012;2022-07-29T04:58:24;982.215;;;24.95;89.1
13058;BME280;6595;49.578;11.012;2022-07-29T05:00:23;982.232;;;25.24;89.1
13058;BME280;6595;49.578;11.012;2022-07-29T05:02:24;982.246;;;25.23;89.1
13058;BME280;6595;49.578;11.012;2022-07-29T05:04:23;982.260;;;25.24;89.1
13058;BME280;6595;49.578;11.012;2022-07-29T05:06:23;982.283;;;24.92;89.1
13058;BME280;6595;49.578;11.012;2022-07-29T05:08:24;982.298;;;25.04;89.1
13058;BME280;6595;49.578;11.012;2022-07-29T05:10:24;982.312;;;24.94;89.1
13058;BME280;6595;49.578;11.012;2022-07-29T05:12:24;982.339;;;25.23;89.1
13058;BME280;6595;49.578;11.012;2022-07-29T05:14:24;982.364;;;25.32;89.1
13058;BME280;6595;49.578;11.012;2022-07-29T05:16:24;982.351;;;25.33;89.1
13058;BME280;6595;49.578;11.012;2022-07-29T05:18:24;982.372;;;25.42;89.1
13058;BME280;6595;49.578;11.012;2022-07-29T05:20:28;982.350;;;25.58;89.2
13058;BME280;6595;49.578;11.012;2022-07-29T05:22:23;982.309;;;25.60;89.2
13058;BME280;6595;49.578;11.012;2022-07-29T05:24:23;982.358;;;25.52;89.2
13058;BME280;6595;49.578;11.012;2022-07-29T05:26:23;982.336;;;25.76;89.2
13058;BME280;6595;49.578;11.012;2022-07-29T05:28:23;982.323;;;25.79;89.2
13058;BME280;6595;49.578;11.012;2022-07-29T05:30:24;982.303;;;25.85;89.2
13058;BME280;6595;49.578;11.012;2022-07-29T05:32:23;982.314;;;25.94;89.2
13058;BME280;6595;49.578;11.012;2022-07-29T05:34:24;982.338;;;26.09;89.2
13058;BME280;6595;49.578;11.012;2022-07-29T05:36:24;982.323;;;26.27;89.2
13058;BME280;6595;49.578;11.012;2022-07-29T05:38:24;982.354;;;26.84;89.3
13058;BME280;6595;49.578;11.012;2022-07-29T05:40:24;982.352;;;27.02;89.3
13058;BME280;6595;49.578;11.012;2022-07-29T05:42:24;982.375;;;27.14;89.3
13058;BME280;6595;49.578;11.012;2022-07-29T05:44:24;982.445;;;27.13;89.3
13058;BME280;6595;49.578;11.012;2022-07-29T05:46:24;982.384;;;27.18;89.3
13058;BME280;6595;49.578;11.012;2022-07-29T05:48:24;982.377;;;27.26;89.3
13058;BME280;6595;49.578;11.012;2022-07-29T05:50:24;982.366;;;27.09;89.3
13058;BME280;6595;49.578;11.012;2022-07-29T05:52:24;982.409;;;27.01;89.3
13058;BME280;6595;49.578;11.012;2022-07-29T05:54:24;982.403;;;27.02;89.3
13058;BME280;6595;49.578;11.012;2022-07-29T05:56:23;982.446;;;27.03;89.3
13058;BME280;6595;49.578;11.012;2022-07-29T05:58:23;982.426;;;27.03;89.3
13058;BME280;6595;49.578;11.012;2022-07-29T06:00:23;982.429;;;26.94;89.3
13058;BME280;6595;49.578;11.012;2022-07-29T06:02:24;982.394;;;26.97;89.3
13058;BME280;6595;49.578;11.012;2022-07-29T06:04:24;982.352;;;26.93;89.3
13058;BME280;6595;49.578;11.012;2022-07-29T06:06:23;982.339;;;27.04;89.3
13058;BME280;6595;49.578;11.012;2022-07-29T06:08:23;982.310;;;27.24;89.3
13058;BME280;6595;49.578;11.012;2022-07-29T06:10:24;982.310;;;27.24;89.3
13058;BME280;6595;49.578;11.012;2022-07-29T06:12:24;982.307;;;27.24;89.3
13058;BME280;6595;49.578;11.012;2022-07-29T06:14:24;982.302;;;27.59;89.4
13058;BME280;6595;49.578;11.012;2022-07-29T06:16:24;982.334;;;27.76;89.4
13058;BME280;6595;49.578;11.012;2022-07-29T06:18:24;982.325;;;27.75;89.4
13058;BME280;6595;49.578;11.012;2022-07-29T06:20:24;982.290;;;28.24;89.4
13058;BME280;6595;49.578;11.012;2022-07-29T06:22:24;982.371;;;28.02;89.4
13058;BME280;6595;49.578;11.012;2022-07-29T06:24:24;982.392;;;27.96;89.4
13058;BME280;6595;49.578;11.012;2022-07-29T06:26:24;982.385;;;28.11;89.4
13058;BME280;6595;49.578;11.012;2022-07-29T06:28:23;982.382;;;28.40;89.5
13058;BME280;6595;49.578;11.012;2022-07-29T06:30:24;982.378;;;28.72;89.5
13058;BME280;6595;49.578;11.012;2022-07-29T06:32:24;982.370;;;28.78;89.5
13058;BME280;6595;49.578;11.012;2022-07-29T06:34:24;982.339;;;28.48;89.5
13058;BME280;6595;49.578;11.012;2022-07-29T06:36:23;982.336;;;28.74;89.5
13058;BME280;6595;49.578;11.012;2022-07-29T06:38:24;982.321;;;29.14;89.5
13058;BME280;6595;49.578;11.012;2022-07-29T06:40:44;982.315;;;29.28;89.5
13058;BME280;6595;49.578;11.012;2022-07-29T06:42:24;982.305;;;28.91;89.5
13058;BME280;6595;49.578;11.012;2022-07-29T06:44:24;982.327;;;29.09;89.5
13058;BME280;6595;49.578;11.012;2022-07-29T06:46:24;982.319;;;29.24;89.5
13058;BME280;6595;49.578;11.012;2022-07-29T06:48:24;982.312;;;29.41;89.6
13058;BME280;6595;49.578;11.012;2022-07-29T06:50:24;982.368;;;29.55;89.6
13058;BME280;6595;49.578;11.012;2022-07-29T06:52:25;982.292;;;29.48;89.6
13058;BME280;6595;49.578;11.012;2022-07-29T06:54:24;982.372;;;29.61;89.6
13058;BME280;6595;49.578;11.012;2022-07-29T06:56:25;982.369;;;29.70;89.6
13058;BME280;6595;49.578;11.012;2022-07-29T06:58:24;982.341;;;29.65;89.6
13058;BME280;6595;49.578;11.012;2022-07-29T07:00:24;982.410;;;29.87;89.6
13058;BME280;6595;49.578;11.012;2022-07-29T07:02:23;982.410;;;29.87;89.6
13058;BME280;6595;49.578;11.012;2022-07-29T07:04:24;982.447;;;29.94;89.6
13058;BME280;6595;49.578;11.012;2022-07-29T07:06:23;982.447;;;29.94;89.6
13058;BME280;6595;49.578;11.012;2022-07-29T07:08:24;982.454;;;30.45;89.7
13058;BME280;6595;49.578;11.012;2022-07-29T07:10:24;982.453;;;30.33;89.7
13058;BME280;6595;49.578;11.012;2022-07-29T07:12:24;982.448;;;30.74;89.7
13058;BME280;6595;49.578;11.012;2022-07-29T07:14:26;982.431;;;31.09;89.7
13058;BME280;6595;49.578;11.012;2022-07-29T07:16:24;982.431;;;31.09;89.7
13058;BME280;6595;49.578;11.012;2022-07-29T07:18:23;982.418;;;31.06;89.7
13058;BME280;6595;49.578;11.012;2022-07-29T07:20:24;982.438;;;30.69;89.7
13058;BME280;6595;49.578;11.012;2022-07-29T07:22:24;982.466;;;31.32;89.8
13058;BME280;6595;49.578;11.012;2022-07-29T07:24:25;982.438;;;31.58;89.8
13058;BME280;6595;49.578;11.012;2022-07-29T07:26:25;982.445;;;31.56;89.8
13058;BME280;6595;49.578;11.012;2022-07-29T07:28:24;982.364;;;31.41;89.8
13058;BME280;6595;49.578;11.012;2022-07-29T07:30:24;982.403;;;31.74;89.8
13058;BME280;6595;49.578;11.012;2022-07-29T07:32:24;982.392;;;31.72;89.8
13058;BME280;6595;49.578;11.012;2022-07-29T07:34:24;982.414;;;31.85;89.8
13058;BME280;6595;49.578;11.012;2022-07-29T07:36:23;982.360;;;31.52;89.8
13058;BME280;6595;49.578;11.012;2022-07-29T07:38:24;982.358;;;31.60;89.8
13058;BME280;6595;49.578;11.012;2022-07-29T07:40:24;982.353;;;31.43;89.8
13058;BME280;6595;49.578;11.012;2022-07-29T07:42:24;982.309;;;31.54;89.8
13058;BME280;6595;49.578;11.012;2022-07-29T07:44:24;982.262;;;31.46;89.8
13058;BME280;6595;49.578;11.012;2022-07-29T07:46:23;982.285;;;31.16;89.7
13058;BME280;6595;49.578;11.012;2022-07-29T07:48:24;982.227;;;31.40;89.8
13058;BME280;6595;49.578;11.012;2022-07-29T07:50:24;982.202;;;31.39;89.8
13058;BME280;6595;49.578;11.012;2022-07-29T07:52:24;982.202;;;31.39;89.8
13058;BME280;6595;49.578;11.012;2022-07-29T07:54:24;982.256;;;31.73;89.8
13058;BME280;6595;49.578;11.012;2022-07-29T07:56:24;982.242;;;31.68;89.8
13058;BME280;6595;49.578;11.012;2022-07-29T07:58:24;982.187;;;31.55;89.8
13058;BME280;6595;49.578;11.012;2022-07-29T08:00:24;982.177;;;31.60;89.8
13058;BME280;6595;49.578;11.012;2022-07-29T08:02:24;982.175;;;31.70;89.8
13058;BME280;6595;49.578;11.012;2022-07-29T08:04:24;982.177;;;31.70;89.8
13058;BME280;6595;49.578;11.012;2022-07-29T08:06:24;982.177;;;31.70;89.8
13058;BME280;6595;49.578;11.012;2022-07-29T08:08:24;982.218;;;31.92;89.8
13058;BME280;6595;49.578;11.012;2022-07-29T08:10:43;982.196;;;31.86;89.8
13058;BME280;6595;49.578;11.012;2022-07-29T08:12:24;982.181;;;31.94;89.8
13058;BME280;6595;49.578;11.012;2022-07-29T08:14:24;982.160;;;32.30;89.9
13058;BME280;6595;49.578;11.012;2022-07-29T08:16:25;982.165;;;32.25;89.9
13058;BME280;6595;49.578;11.012;2022-07-29T08:18:24;982.147;;;32.59;89.9
13058;BME280;6595;49.578;11.012;2022-07-29T08:20:24;982.168;;;32.07;89.8
13058;BME280;6595;49.578;11.012;2022-07-29T08:22:23;982.104;;;32.48;89.9
13058;BME280;6595;49.578;11.012;2022-07-29T08:24:43;982.143;;;31.97;89.8
13058;BME280;6595;49.578;11.012;2022-07-29T08:26:23;982.111;;;32.37;89.9
13058;BME280;6595;49.578;11.012;2022-07-29T08:28:24;982.128;;;32.10;89.8
13058;BME280;6595;49.578;11.012;2022-07-29T08:30:23;982.080;;;32.70;89.9
13058;BME280;6595;49.578;11.012;2022-07-29T08:32:23;982.059;;;32.79;89.9
13058;BME280;6595;49.578;11.012;2022-07-29T08:34:24;982.099;;;33.01;89.9
13058;BME280;6595;49.578;11.012;2022-07-29T08:36:24;982.092;;;33.23;90.0
13058;BME280;6595;49.578;11.012;2022-07-29T08:38:26;982.081;;;33.27;90.0
13058;BME280;6595;49.578;11.012;2022-07-29T08:40:25;982.066;;;33.24;90.0
13058;BME280;6595;49.578;11.012;2022-07-29T08:42:23;982.075;;;33.68;90.0
13058;BME280;6595;49.578;11.012;2022-07-29T08:44:25;982.078;;;33.75;90.0
13058;BME280;6595;49.578;11.012;2022-07-29T08:46:24;982.097;;;34.05;90.0
13058;BME280;6595;49.578;11.012;2022-07-29T08:48:24;982.097;;;34.05;90.0
13058;BME280;6595;49.578;11.012;2022-07-29T08:50:24;982.048;;;34.32;90.1
13058;BME280;6595;49.578;11.012;2022-07-29T08:52:25;982.045;;;34.45;90.1
13058;BME280;6595;49.578;11.012;2022-07-29T08:54:24;982.038;;;33.94;90.0
13058;BME280;6595;49.578;11.012;2022-07-29T08:56:24;982.002;;;34.31;90.1
13058;BME280;6595;49.578;11.012;2022-07-29T08:58:24;982.009;;;34.42;90.1
13058;BME280;6595;49.578;11.012;2022-07-29T09:00:25;982.014;;;34.44;90.1
13058;BME280;6595;49.578;11.012;2022-07-29T09:02:25;982.032;;;34.57;90.1
13058;BME280;6595;49.578;11.012;2022-07-29T09:04:24;982.061;;;34.53;90.1
13058;BME280;6595;49.578;11.012;2022-07-29T09:06:28;982.078;;;34.34;90.1
13058;BME280;6595;49.578;11.012;2022-07-29T09:08:25;982.074;;;33.96;90.0
13058;BME280;6595;49.578;11.012;2022-07-29T09:10:24;982.045;;;34.50;90.1
13058;BME280;6595;49.578;11.012;2022-07-29T09:12:25;982.025;;;34.31;90.1
13058;BME280;6595;49.578;11.012;2022-07-29T09:14:24;981.957;;;34.65;90.1
13058;BME280;6595;49.578;11.012;2022-07-29T09:16:23;981.957;;;34.65;90.1
13058;BME280;6595;49.578;11.012;2022-07-29T09:18:36;981.967;;;34.36;90.1
13058;BME280;6595;49.578;11.012;2022-07-29T09:20:24;981.920;;;33.73;90.0
13058;BME280;6595;49.578;11.012;2022-07-29T09:22:29;981.915;;;34.37;90.1
13058;BME280;6595;49.578;11.012;2022-07-29T09:24:25;981.955;;;33.62;90.0
13058;BME280;6595;49.578;11.012;2022-07-29T09:26:28;981.936;;;33.66;90.0
13058;BME280;6595;49.578;11.012;2022-07-29T09:28:24;981.921;;;32.80;89.9
13058;BME280;6595;49.578;11.012;2022-07-29T09:30:25;981.902;;;33.64;90.0
13058;BME280;6595;49.578;11.012;2022-07-29T09:32:24;981.887;;;33.30;90.0
13058;BME280;6595;49.578;11.012;2022-07-29T09:34:25;981.890;;;33.70;90.0
13058;BME280;6595;49.578;11.012;2022-07-29T09:36:24;981.880;;;33.96;90.0
13058;BME280;6595;49.578;11.012;2022-07-29T09:38:24;981.852;;;34.14;90.0
13058;BME280;6595;49.578;11.012;2022-07-29T09:40:26;981.831;;;34.24;90.1
13058;BME280;6595;49.578;11.012;2022-07-29T09:42:28;981.797;;;34.12;90.1
13058;BME280;6595;49.578;11.012;2022-07-29T09:44:25;981.801;;;34.55;90.1
13058;BME280;6595;49.578;11.012;2022-07-29T09:46:26;981.763;;;34.65;90.1
13058;BME280;6595;49.578;11.012;2022-07-29T09:48:25;981.766;;;34.69;90.1
13058;BME280;6595;49.578;11.012;2022-07-29T09:50:34;981.767;;;34.76;90.1
13058;BME280;6595;49.578;11.012;2022-07-29T09:52:25;981.767;;;34.84;90.1
13058;BME280;6595;49.578;11.012;2022-07-29T09:54:25;981.765;;;34.79;90.1
13058;BME280;6595;49.578;11.012;2022-07-29T09:56:41;981.797;;;34.73;90.1
13058;BME280;6595;49.578;11.012;2022-07-29T09:58:24;981.787;;;34.36;90.1
13058;BME280;6595;49.578;11.012;2022-07-29T10:00:25;981.810;;;34.77;90.1
13058;BME280;6595;49.578;11.012;2022-07-29T10:02:28;981.825;;;34.57;90.1
13058;BME280;6595;49.578;11.012;2022-07-29T10:04:24;981.810;;;34.16;90.1
13058;BME280;6595;49.578;11.012;2022-07-29T10:06:24;981.787;;;34.73;90.1
13058;BME280;6595;49.578;11.012;2022-07-29T10:08:25;981.827;;;34.80;90.1
13058;BME280;6595;49.578;11.012;2022-07-29T10:10:25;981.801;;;35.13;90.2
13058;BME280;6595;49.578;11.012;2022-07-29T10:12:24;981.801;;;35.14;90.2
13058;BME280;6595;49.578;11.012;2022-07-29T10:14:23;981.819;;;35.37;90.2
13058;BME280;6595;49.578;11.012;2022-07-29T10:16:24;981.814;;;35.70;90.2
13058;BME280;6595;49.578;11.012;2022-07-29T10:18:24;981.804;;;35.70;90.2
13058;BME280;6595;49.578;11.012;2022-07-29T10:20:25;981.800;;;36.04;90.3
13058;BME280;6595;49.578;11.012;2022-07-29T10:22:24;981.792;;;36.21;90.3
13058;BME280;6595;49.578;11.012;2022-07-29T10:24:25;981.791;;;35.50;90.2
13058;BME280;6595;49.578;11.012;2022-07-29T10:26:23;981.819;;;35.86;90.2
13058;BME280;6595;49.578;11.012;2022-07-29T10:28:24;981.811;;;35.62;90.2
13058;BME280;6595;49.578;11.012;2022-07-29T10:30:25;981.811;;;35.62;90.2
13058;BME280;6595;49.578;11.012;2022-07-29T10:32:37;981.819;;;36.23;90.3
13058;BME280;6595;49.578;11.012;2022-07-29T10:34:34;981.783;;;36.29;90.3
13058;BME280;6595;49.578;11.012;2022-07-29T10:36:38;981.790;;;35.47;90.2
13058;BME280;6595;49.578;11.012;2022-07-29T10:38:42;981.747;;;35.43;90.2
13058;BME280;6595;49.578;11.012;2022-07-29T10:40:50;981.729;;;35.94;90.2
13058;BME280;6595;49.578;11.012;2022-07-29T10:42:25;981.704;;;36.24;90.3
13058;BME280;6595;49.578;11.012;2022-07-29T10:44:25;981.657;;;34.89;90.1
13058;BME280;6595;49.578;11.012;2022-07-29T10:46:24;981.616;;;34.21;90.1
13058;BME280;6595;49.578;11.012;2022-07-29T10:48:24;981.596;;;34.37;90.1
13058;BME280;6595;49.578;11.012;2022-07-29T10:50:24;981.546;;;34.69;90.1
13058;BME280;6595;49.578;11.012;2022-07-29T10:54:38;981.570;;;35.43;90.2